createdAt,value
2022-09-30T00:00:15.406Z,11.53
2022-09-30T00:01:15.390Z,11.44
2022-09-30T00:02:15.380Z,11.44
2022-09-30T00:03:15.373Z,11.74
2022-09-30T00:04:15.375Z,11.99
2022-09-30T00:05:15.367Z,12.16
2022-09-30T00:06:15.364Z,12.3
2022-09-30T00:07:15.334Z,12.26
2022-09-30T00:08:15.329Z,12.41
2022-09-30T00:09:15.315Z,12.31
2022-09-30T00:10:15.304Z,12.31
2022-09-30T00:11:15.334Z,12.23
2022-09-30T00:12:15.281Z,12.15
2022-09-30T00:13:15.270Z,12.15
2022-09-30T00:14:15.260Z,12.24
2022-09-30T00:15:15.254Z,12.19
2022-09-30T00:16:15.241Z,11.97
2022-09-30T00:17:15.228Z,11.85
2022-09-30T00:18:15.216Z,11.94
2022-09-30T00:19:15.206Z,11.94
2022-09-30T00:20:15.195Z,12.01
2022-09-30T00:21:15.189Z,11.77
2022-09-30T00:22:15.174Z,11.77
2022-09-30T00:23:15.173Z,11.71
2022-09-30T00:24:15.156Z,11.62
2022-09-30T00:25:15.142Z,11.44
2022-09-30T00:26:15.131Z,11.49
2022-09-30T00:27:15.124Z,11.47
2022-09-30T00:28:15.109Z,11.35
2022-09-30T00:29:15.107Z,11.32
2022-09-30T00:30:15.088Z,11.39
2022-09-30T00:31:15.083Z,11.64
2022-09-30T00:32:15.065Z,11.59
2022-09-30T00:33:15.060Z,11.31
2022-09-30T00:34:15.058Z,11.43
2022-09-30T00:35:15.035Z,11.16
2022-09-30T00:36:15.022Z,11.1
2022-09-30T00:37:15.012Z,11.13
2022-09-30T00:38:15.009Z,11.14
2022-09-30T00:39:14.992Z,11.13
2022-09-30T00:40:14.982Z,11.17
2022-09-30T00:41:14.976Z,11.24
2022-09-30T00:42:14.958Z,11.38
2022-09-30T00:43:14.949Z,11.47
2022-09-30T00:44:14.944Z,11.5
2022-09-30T00:45:14.934Z,11.52
2022-09-30T00:46:14.920Z,11.52
2022-09-30T00:47:14.905Z,11.43
2022-09-30T00:48:14.901Z,11.35
2022-09-30T00:49:14.890Z,11.27
2022-09-30T00:50:14.885Z,11.34
2022-09-30T00:51:14.872Z,11.28
2022-09-30T00:52:14.861Z,11.11
2022-09-30T00:53:14.845Z,11.11
2022-09-30T00:54:14.845Z,11.21
2022-09-30T00:55:14.820Z,11.25
2022-09-30T00:56:14.829Z,11.19
2022-09-30T00:57:14.802Z,11.1
2022-09-30T00:58:14.789Z,11.1
2022-09-30T00:59:14.777Z,11.13
2022-09-30T01:00:14.770Z,11.09
2022-09-30T01:01:14.756Z,11.27
2022-09-30T01:02:14.745Z,11.19
2022-09-30T01:03:14.739Z,11.25
2022-09-30T01:04:14.741Z,11.25
2022-09-30T01:05:14.713Z,11.27
2022-09-30T01:06:14.705Z,11.29
2022-09-30T01:07:14.692Z,11.14
2022-09-30T01:08:14.681Z,11.16
2022-09-30T01:09:14.673Z,11.1
2022-09-30T01:10:14.664Z,11.11
2022-09-30T01:11:14.653Z,11.1
2022-09-30T01:12:14.644Z,10.92
2022-09-30T01:13:14.632Z,10.65
2022-09-30T01:14:14.616Z,10.83
2022-09-30T01:15:14.609Z,11.09
2022-09-30T01:16:14.597Z,11.31
2022-09-30T01:17:14.600Z,11.68
2022-09-30T01:18:14.575Z,11.77
2022-09-30T01:19:14.565Z,11.9
2022-09-30T01:20:14.554Z,11.89
2022-09-30T01:21:14.545Z,11.67
2022-09-30T01:22:14.536Z,11.64
2022-09-30T01:23:14.522Z,11.52
2022-09-30T01:24:14.510Z,11.53
2022-09-30T01:25:14.506Z,11.56
2022-09-30T01:26:14.492Z,11.56
2022-09-30T01:27:14.478Z,11.59
2022-09-30T01:28:14.471Z,11.25
2022-09-30T01:29:14.461Z,10.95
2022-09-30T01:30:14.452Z,11.09
2022-09-30T01:31:14.443Z,11.27
2022-09-30T01:32:14.426Z,11.49
2022-09-30T01:33:14.426Z,11.72
2022-09-30T01:34:14.409Z,11.59
2022-09-30T01:35:14.393Z,11.49
2022-09-30T01:36:14.386Z,11.54
2022-09-30T01:37:14.371Z,11.74
2022-09-30T01:38:14.356Z,11.83
2022-09-30T01:39:14.345Z,11.65
2022-09-30T01:40:14.334Z,11.67
2022-09-30T01:41:14.323Z,11.64
2022-09-30T01:42:14.319Z,11.29
2022-09-30T01:43:14.298Z,11.07
2022-09-30T01:44:14.289Z,10.81
2022-09-30T01:45:14.280Z,11.01
2022-09-30T01:46:14.266Z,11.02
2022-09-30T01:47:14.258Z,11.2
2022-09-30T01:48:14.258Z,11.32
2022-09-30T01:49:14.238Z,11.29
2022-09-30T01:50:14.223Z,11.35
2022-09-30T01:51:14.213Z,11.41
2022-09-30T01:52:14.206Z,11.47
2022-09-30T01:53:14.192Z,11.36
2022-09-30T01:54:14.180Z,11.35
2022-09-30T01:55:14.168Z,11.16
2022-09-30T01:56:14.156Z,10.83
2022-09-30T01:57:14.148Z,10.53
2022-09-30T01:58:14.135Z,10.47
2022-09-30T01:59:14.124Z,10.7
2022-09-30T02:00:14.113Z,10.83
2022-09-30T02:01:14.101Z,10.62
2022-09-30T02:02:14.092Z,10.55
2022-09-30T02:03:14.092Z,10.53
2022-09-30T02:04:14.073Z,10.44
2022-09-30T02:05:14.057Z,10.44
2022-09-30T02:06:14.049Z,10.55
2022-09-30T02:07:14.036Z,10.46
2022-09-30T02:08:14.025Z,10.46
2022-09-30T02:09:14.014Z,10.42
2022-09-30T02:10:14.005Z,10.63
2022-09-30T02:11:14.015Z,10.76
2022-09-30T02:12:13.986Z,10.8
2022-09-30T02:13:13.975Z,10.65
2022-09-30T02:14:13.961Z,10.51
2022-09-30T02:15:13.951Z,10.91
2022-09-30T02:16:13.942Z,10.81
2022-09-30T02:17:13.929Z,10.99
2022-09-30T02:18:13.930Z,10.99
2022-09-30T02:19:13.909Z,10.89
2022-09-30T02:20:13.898Z,10.83
2022-09-30T02:21:13.891Z,10.66
2022-09-30T02:22:13.878Z,10.46
2022-09-30T02:23:13.865Z,10.51
2022-09-30T02:24:13.862Z,10.42
2022-09-30T02:25:13.849Z,10.88
2022-09-30T02:26:13.834Z,11.02
2022-09-30T02:27:13.820Z,11.01
2022-09-30T02:28:13.810Z,11.06
2022-09-30T02:29:13.804Z,11.1
2022-09-30T02:30:13.793Z,10.76
2022-09-30T02:31:13.783Z,10.66
2022-09-30T02:32:13.767Z,10.65
2022-09-30T02:33:13.761Z,10.94
2022-09-30T02:34:13.748Z,11.01
2022-09-30T02:35:13.736Z,11.13
2022-09-30T02:36:13.726Z,11.03
2022-09-30T02:37:13.723Z,11.06
2022-09-30T02:38:13.705Z,10.8
2022-09-30T02:39:13.699Z,10.81
2022-09-30T02:40:13.685Z,10.84
2022-09-30T02:41:13.673Z,10.99
2022-09-30T02:42:13.664Z,10.94
2022-09-30T02:43:13.683Z,11.09
2022-09-30T02:44:13.645Z,11.24
2022-09-30T02:45:13.630Z,11.19
2022-09-30T02:46:13.619Z,11.27
2022-09-30T02:47:13.614Z,11.29
2022-09-30T02:48:13.600Z,11.34
2022-09-30T02:49:13.592Z,11.41
2022-09-30T02:50:13.582Z,11.43
2022-09-30T02:51:13.573Z,11.49
2022-09-30T02:52:13.576Z,11.43
2022-09-30T02:53:13.549Z,11.17
2022-09-30T02:54:13.536Z,11.13
2022-09-30T02:55:13.528Z,11.09
2022-09-30T02:56:13.520Z,10.86
2022-09-30T02:57:13.503Z,10.83
2022-09-30T02:58:13.501Z,10.78
2022-09-30T02:59:13.480Z,10.86
2022-09-30T03:00:13.474Z,10.81
2022-09-30T03:01:13.458Z,10.83
2022-09-30T03:02:13.449Z,10.73
2022-09-30T03:03:13.438Z,10.78
2022-09-30T03:04:13.430Z,10.73
2022-09-30T03:05:13.420Z,10.71
2022-09-30T03:06:13.408Z,10.4
2022-09-30T03:07:13.401Z,10.46
2022-09-30T03:08:13.391Z,10.42
2022-09-30T03:09:13.377Z,10.4
2022-09-30T03:10:13.365Z,10.25
2022-09-30T03:11:13.359Z,10.39
2022-09-30T03:12:13.347Z,10.53
2022-09-30T03:13:13.335Z,10.55
2022-09-30T03:14:13.322Z,10.58
2022-09-30T03:15:13.316Z,10.47
2022-09-30T03:16:13.302Z,10.4
2022-09-30T03:17:13.291Z,10.47
2022-09-30T03:18:13.278Z,10.76
2022-09-30T03:19:13.268Z,10.8
2022-09-30T03:20:13.259Z,10.88
2022-09-30T03:21:13.266Z,11.03
2022-09-30T03:22:13.256Z,11.19
2022-09-30T03:23:13.249Z,11.13
2022-09-30T03:24:13.221Z,11.19
2022-09-30T03:25:13.205Z,11.19
2022-09-30T03:26:13.199Z,11.07
2022-09-30T03:27:13.186Z,11.06
2022-09-30T03:28:13.174Z,11.09
2022-09-30T03:29:13.162Z,11.09
2022-09-30T03:30:13.153Z,10.94
2022-09-30T03:31:13.145Z,10.81
2022-09-30T03:32:13.133Z,10.8
2022-09-30T03:33:13.119Z,11.02
2022-09-30T03:34:13.117Z,11.13
2022-09-30T03:35:13.103Z,11.17
2022-09-30T03:36:13.091Z,11.27
2022-09-30T03:37:13.081Z,11.24
2022-09-30T03:38:13.065Z,11.1
2022-09-30T03:39:13.061Z,11.14
2022-09-30T03:40:13.049Z,11.16
2022-09-30T03:41:13.035Z,11.11
2022-09-30T03:42:13.026Z,10.89
2022-09-30T03:43:13.025Z,10.51
2022-09-30T03:44:13.005Z,10.65
2022-09-30T03:45:12.996Z,10.74
2022-09-30T03:46:12.982Z,10.63
2022-09-30T03:47:12.975Z,10.78
2022-09-30T03:48:13.019Z,10.66
2022-09-30T03:49:12.992Z,10.88
2022-09-30T03:50:12.946Z,10.98
2022-09-30T03:51:12.929Z,10.92
2022-09-30T03:52:12.917Z,10.86
2022-09-30T03:53:12.906Z,10.66
2022-09-30T03:54:12.899Z,10.39
2022-09-30T03:55:12.887Z,10.1
2022-09-30T03:56:12.878Z,9.94
2022-09-30T03:57:12.870Z,10.21
2022-09-30T03:58:12.856Z,10.26
2022-09-30T03:59:12.847Z,10.3
2022-09-30T04:00:12.845Z,10.3
2022-09-30T04:01:12.826Z,10.44
2022-09-30T04:02:12.817Z,10.55
2022-09-30T04:03:12.806Z,10.43
2022-09-30T04:04:12.794Z,10.44
2022-09-30T04:05:12.781Z,10.33
2022-09-30T04:06:12.769Z,10.25
2022-09-30T04:07:12.763Z,10.09
2022-09-30T04:08:12.755Z,10.21
2022-09-30T04:09:12.742Z,10.01
2022-09-30T04:10:12.727Z,10.04
2022-09-30T04:11:12.718Z,10.14
2022-09-30T04:12:12.707Z,10.26
2022-09-30T04:13:12.697Z,10.24
2022-09-30T04:14:12.690Z,10.24
2022-09-30T04:15:12.683Z,10.4
2022-09-30T04:16:12.672Z,10.44
2022-09-30T04:17:12.654Z,10.47
2022-09-30T04:18:13.444Z,10.39
2022-09-30T04:19:12.629Z,10.37
2022-09-30T04:20:12.623Z,10.26
2022-09-30T04:21:12.608Z,10.51
2022-09-30T04:22:12.599Z,10.46
2022-09-30T04:23:12.589Z,10.36
2022-09-30T04:24:12.599Z,10.36
2022-09-30T04:25:12.574Z,10.37
2022-09-30T04:26:12.560Z,10.44
2022-09-30T04:27:12.551Z,10.19
2022-09-30T04:28:12.567Z,10.06
2022-09-30T04:29:12.526Z,10.12
2022-09-30T04:30:12.515Z,10.18
2022-09-30T04:31:12.516Z,10.26
2022-09-30T04:32:12.493Z,10.33
2022-09-30T04:33:12.485Z,10.21
2022-09-30T04:34:12.476Z,10.21
2022-09-30T04:35:12.478Z,10.18
2022-09-30T04:36:12.448Z,9.91
2022-09-30T04:37:12.440Z,9.85
2022-09-30T04:38:12.439Z,9.93
2022-09-30T04:39:12.420Z,10.04
2022-09-30T04:40:12.412Z,9.89
2022-09-30T04:41:12.400Z,9.79
2022-09-30T04:42:12.388Z,9.61
2022-09-30T04:43:12.376Z,9.66
2022-09-30T04:44:12.364Z,9.76
2022-09-30T04:45:12.354Z,9.58
2022-09-30T04:46:12.343Z,9.46
2022-09-30T04:47:12.336Z,9.43
2022-09-30T04:48:12.334Z,9.63
2022-09-30T04:49:12.311Z,9.6
2022-09-30T04:50:12.309Z,9.63
2022-09-30T04:51:12.300Z,9.49
2022-09-30T04:52:12.281Z,9.49
2022-09-30T04:53:12.272Z,9.52
2022-09-30T04:54:12.269Z,9.53
2022-09-30T04:55:12.254Z,9.79
2022-09-30T04:56:12.291Z,9.86
2022-09-30T04:57:12.240Z,10.09
2022-09-30T04:58:12.215Z,10.33
2022-09-30T04:59:12.213Z,10.43
2022-09-30T05:00:12.202Z,10.3
2022-09-30T05:01:12.196Z,10.1
2022-09-30T05:02:12.176Z,9.91
2022-09-30T05:03:12.161Z,9.71
2022-09-30T05:04:12.149Z,9.58
2022-09-30T05:05:12.148Z,9.43
2022-09-30T05:06:12.134Z,9.42
2022-09-30T05:07:12.156Z,9.71
2022-09-30T05:08:12.108Z,9.78
2022-09-30T05:09:12.125Z,9.7
2022-09-30T05:10:12.091Z,9.57
2022-09-30T05:11:12.077Z,9.63
2022-09-30T05:12:12.070Z,9.63
2022-09-30T05:13:12.059Z,9.68
2022-09-30T05:14:12.100Z,9.4
2022-09-30T05:15:12.094Z,9.4
2022-09-30T05:16:12.049Z,9.4
2022-09-30T05:17:12.073Z,9.45
2022-09-30T05:18:12.001Z,9.99
2022-09-30T05:19:11.993Z,10.14
2022-09-30T05:20:11.984Z,10.24
2022-09-30T05:21:11.989Z,10.21
2022-09-30T05:22:11.971Z,10.19
2022-09-30T05:23:11.956Z,9.81
2022-09-30T05:24:11.941Z,9.58
2022-09-30T05:25:11.929Z,9.6
2022-09-30T05:26:11.924Z,9.48
2022-09-30T05:27:11.905Z,9.61
2022-09-30T05:28:11.897Z,9.67
2022-09-30T05:29:11.883Z,9.6
2022-09-30T05:30:11.992Z,9.46
2022-09-30T05:31:11.862Z,9.64
2022-09-30T05:32:11.875Z,9.93
2022-09-30T05:33:11.841Z,10.06
2022-09-30T05:34:11.833Z,9.96
2022-09-30T05:35:11.826Z,9.76
2022-09-30T05:36:11.814Z,9.96
2022-09-30T05:37:11.798Z,9.97
2022-09-30T05:38:11.791Z,9.89
2022-09-30T05:39:11.783Z,10.06
2022-09-30T05:40:11.768Z,9.94
2022-09-30T05:41:11.761Z,9.88
2022-09-30T05:42:11.748Z,9.76
2022-09-30T05:43:11.761Z,9.71
2022-09-30T05:44:11.727Z,10.04
2022-09-30T05:45:11.713Z,10.07
2022-09-30T05:46:11.756Z,9.99
2022-09-30T05:47:11.712Z,9.97
2022-09-30T05:48:11.686Z,10.1
2022-09-30T05:49:11.678Z,10.17
2022-09-30T05:50:11.660Z,10.19
2022-09-30T05:51:11.655Z,10.26
2022-09-30T05:52:11.650Z,10.19
2022-09-30T05:53:11.633Z,10.22
2022-09-30T05:54:11.657Z,10.12
2022-09-30T05:55:11.611Z,10.22
2022-09-30T05:56:11.745Z,10.03
2022-09-30T05:57:11.660Z,10.28
2022-09-30T05:58:11.591Z,10.62
2022-09-30T05:59:11.607Z,10.8
2022-09-30T06:00:11.621Z,10.8
2022-09-30T06:01:11.573Z,10.86
2022-09-30T06:02:11.567Z,10.98
2022-09-30T06:03:11.621Z,11.01
2022-09-30T06:04:11.520Z,11.09
2022-09-30T06:05:11.519Z,11.16
2022-09-30T06:06:11.505Z,11.52
2022-09-30T06:07:11.487Z,11.67
2022-09-30T06:08:11.484Z,11.8
2022-09-30T06:09:11.467Z,12.04
2022-09-30T06:10:11.452Z,12.21
2022-09-30T06:11:11.454Z,12.52
2022-09-30T06:12:11.459Z,12.87
2022-09-30T06:13:11.420Z,13.07
2022-09-30T06:14:11.422Z,13.43
2022-09-30T06:15:11.402Z,13.77
2022-09-30T06:16:11.438Z,13.88
2022-09-30T06:17:11.391Z,13.96
2022-09-30T06:18:11.370Z,14.14
2022-09-30T06:19:11.366Z,14.64
2022-09-30T06:20:11.348Z,14.65
2022-09-30T06:21:11.370Z,14.65
2022-09-30T06:22:11.344Z,14.28
2022-09-30T06:23:11.315Z,14.14
2022-09-30T06:24:11.308Z,13.69
2022-09-30T06:25:11.311Z,13.8
2022-09-30T06:26:11.293Z,14.07
2022-09-30T06:27:11.284Z,14.37
2022-09-30T06:28:11.279Z,14.64
2022-09-30T06:29:11.252Z,14.95
2022-09-30T06:30:11.240Z,15.13
2022-09-30T06:31:11.234Z,14.12
2022-09-30T06:32:11.222Z,13.36
2022-09-30T06:33:11.209Z,12.71
2022-09-30T06:34:11.204Z,12.41
2022-09-30T06:35:11.231Z,12.15
2022-09-30T06:36:11.173Z,12.21
2022-09-30T06:37:11.165Z,12.34
2022-09-30T06:38:11.191Z,12.46
2022-09-30T06:39:11.155Z,13.14
2022-09-30T06:40:11.143Z,13.49
2022-09-30T06:41:11.127Z,13.87
2022-09-30T06:42:11.147Z,14.57
2022-09-30T06:43:11.101Z,14.5
2022-09-30T06:44:11.090Z,14.38
2022-09-30T06:45:11.102Z,13.49
2022-09-30T06:46:11.082Z,13.18
2022-09-30T06:47:11.107Z,12.7
2022-09-30T06:48:11.050Z,12.59
2022-09-30T06:49:11.073Z,12.62
2022-09-30T06:50:11.033Z,12.3
2022-09-30T06:51:11.011Z,12.26
2022-09-30T06:52:11.016Z,12.01
2022-09-30T06:53:11.003Z,11.89
2022-09-30T06:54:10.985Z,11.85
2022-09-30T06:55:10.971Z,11.68
2022-09-30T06:56:10.959Z,11.29
2022-09-30T06:57:10.973Z,11.5
2022-09-30T06:58:10.947Z,11.49
2022-09-30T06:59:10.927Z,11.87
2022-09-30T07:00:10.922Z,12.34
2022-09-30T07:01:10.908Z,12.97
2022-09-30T07:02:10.905Z,13.55
2022-09-30T07:03:10.886Z,13.38
2022-09-30T07:04:10.912Z,12.81
2022-09-30T07:05:10.864Z,12.48
2022-09-30T07:06:10.857Z,12.23
2022-09-30T07:07:10.843Z,12.41
2022-09-30T07:08:10.838Z,13.12
2022-09-30T07:09:10.824Z,14.02
2022-09-30T07:10:10.808Z,14.67
2022-09-30T07:11:10.816Z,15.31
2022-09-30T07:12:10.786Z,15.99
2022-09-30T07:13:10.779Z,16.53
2022-09-30T07:14:10.770Z,16.5
2022-09-30T07:15:10.754Z,17.07
2022-09-30T07:16:10.747Z,17.08
2022-09-30T07:17:10.739Z,16.81
2022-09-30T07:18:10.722Z,16.77
2022-09-30T07:19:10.727Z,17.15
2022-09-30T07:20:10.719Z,17.81
2022-09-30T07:21:10.703Z,17.82
2022-09-30T07:22:10.675Z,18.17
2022-09-30T07:23:10.739Z,17.97
2022-09-30T07:24:10.658Z,18.04
2022-09-30T07:25:10.668Z,18.61
2022-09-30T07:26:10.660Z,18.65
2022-09-30T07:27:10.625Z,18.54
2022-09-30T07:28:10.611Z,18.21
2022-09-30T07:29:10.604Z,18.58
2022-09-30T07:30:10.591Z,18.59
2022-09-30T07:31:10.588Z,18.82
2022-09-30T07:32:10.567Z,19.02
2022-09-30T07:33:10.568Z,18.8
2022-09-30T07:34:10.552Z,18.57
2022-09-30T07:35:10.538Z,18.76
2022-09-30T07:36:10.582Z,18.82
2022-09-30T07:37:10.521Z,18.9
2022-09-30T07:38:10.514Z,18.92
2022-09-30T07:39:10.498Z,18.57
2022-09-30T07:40:10.487Z,18.42
2022-09-30T07:41:10.476Z,18.4
2022-09-30T07:42:10.463Z,18.79
2022-09-30T07:43:10.462Z,18.98
2022-09-30T07:44:10.498Z,19.58
2022-09-30T07:45:10.446Z,19.75
2022-09-30T07:46:10.422Z,19.91
2022-09-30T07:47:10.449Z,19.46
2022-09-30T07:48:10.407Z,19.21
2022-09-30T07:49:10.405Z,18.98
2022-09-30T07:50:10.383Z,18.98
2022-09-30T07:51:10.366Z,18.5
2022-09-30T07:52:10.357Z,18.83
2022-09-30T07:53:10.345Z,18.83
2022-09-30T07:54:10.372Z,19.39
2022-09-30T07:55:10.323Z,20.28
2022-09-30T07:56:10.312Z,20.66
2022-09-30T07:57:10.317Z,21.08
2022-09-30T07:58:10.290Z,21.38
2022-09-30T07:59:10.294Z,21.67
2022-09-30T08:00:10.267Z,22.47
2022-09-30T08:01:10.257Z,23.05
2022-09-30T08:02:10.258Z,23.57
2022-09-30T08:03:10.238Z,23.6
2022-09-30T08:04:10.234Z,22.87
2022-09-30T08:05:10.223Z,22.37
2022-09-30T08:06:10.217Z,22.94
2022-09-30T08:07:10.194Z,22.67
2022-09-30T08:08:10.189Z,22.02
2022-09-30T08:09:10.175Z,21.16
2022-09-30T08:10:10.183Z,21.76
2022-09-30T08:11:10.151Z,21.53
2022-09-30T08:12:10.144Z,21.79
2022-09-30T08:13:10.142Z,22.52
2022-09-30T08:14:10.124Z,22.52
2022-09-30T08:15:10.109Z,22.57
2022-09-30T08:16:10.096Z,21.71
2022-09-30T08:17:10.098Z,21.61
2022-09-30T08:18:10.127Z,20.93
2022-09-30T08:19:10.066Z,20.39
2022-09-30T08:20:10.054Z,18.95
2022-09-30T08:21:10.044Z,18.17
2022-09-30T08:22:10.039Z,17.57
2022-09-30T08:23:10.081Z,17.23
2022-09-30T08:24:10.007Z,16.56
2022-09-30T08:25:10.008Z,15.81
2022-09-30T08:26:10.006Z,15.79
2022-09-30T08:27:10.987Z,15.84
2022-09-30T08:28:09.977Z,15.93
2022-09-30T08:29:09.965Z,15.84
2022-09-30T08:30:09.963Z,15.81
2022-09-30T08:31:09.963Z,15.79
2022-09-30T08:32:09.925Z,15.48
2022-09-30T08:33:09.912Z,15.59
2022-09-30T08:34:09.910Z,15.63
2022-09-30T08:35:09.893Z,15.51
2022-09-30T08:36:09.892Z,15.6
2022-09-30T08:37:09.872Z,15.49
2022-09-30T08:38:09.866Z,15.28
2022-09-30T08:39:09.854Z,15.61
2022-09-30T08:40:09.845Z,15.79
2022-09-30T08:41:09.848Z,15.88
2022-09-30T08:42:09.820Z,15.54
2022-09-30T08:43:09.815Z,15.6
2022-09-30T08:44:09.796Z,15.66
2022-09-30T08:45:09.792Z,15.67
2022-09-30T08:46:09.782Z,15.6
2022-09-30T08:47:09.764Z,15.82
2022-09-30T08:48:09.938Z,15.88
2022-09-30T08:49:09.897Z,16.06
2022-09-30T08:50:09.728Z,16.27
2022-09-30T08:51:09.921Z,16.27
2022-09-30T08:52:09.712Z,16.23
2022-09-30T08:53:09.699Z,16.26
2022-09-30T08:54:09.711Z,16.5
2022-09-30T08:55:09.675Z,16.63
2022-09-30T08:56:09.665Z,16.6
2022-09-30T08:57:09.655Z,16.63
2022-09-30T08:58:09.643Z,16.23
2022-09-30T08:59:09.644Z,16.12
2022-09-30T09:00:09.619Z,16.11
2022-09-30T09:01:09.610Z,15.97
2022-09-30T09:02:09.603Z,15.97
2022-09-30T09:03:09.597Z,16.18
2022-09-30T09:04:09.581Z,16.31
2022-09-30T09:05:10.396Z,16.6
2022-09-30T09:06:09.564Z,16.78
2022-09-30T09:07:09.628Z,16.86
2022-09-30T09:08:09.535Z,17.07
2022-09-30T09:09:09.557Z,17.06
2022-09-30T09:10:09.535Z,16.89
2022-09-30T09:11:09.507Z,17.17
2022-09-30T09:12:09.494Z,16.92
2022-09-30T09:13:09.479Z,17.04
2022-09-30T09:14:09.477Z,17.15
2022-09-30T09:15:09.466Z,17.14
2022-09-30T09:16:09.451Z,16.95
2022-09-30T09:17:09.447Z,17.13
2022-09-30T09:18:09.431Z,17.07
2022-09-30T09:19:09.420Z,17.35
2022-09-30T09:20:09.416Z,17.36
2022-09-30T09:21:09.411Z,17.13
2022-09-30T09:22:09.399Z,17.14
2022-09-30T09:23:09.377Z,17.03
2022-09-30T09:24:09.361Z,17.04
2022-09-30T09:25:09.351Z,17.15
2022-09-30T09:26:09.347Z,17.28
2022-09-30T09:27:09.328Z,17.43
2022-09-30T09:28:09.328Z,17.53
2022-09-30T09:29:09.307Z,17.5
2022-09-30T09:30:09.300Z,17.63
2022-09-30T09:31:09.289Z,17.82
2022-09-30T09:32:09.282Z,17.71
2022-09-30T09:33:09.287Z,17.91
2022-09-30T09:34:09.255Z,17.82
2022-09-30T09:35:09.245Z,17.79
2022-09-30T09:36:09.233Z,17.94
2022-09-30T09:37:09.221Z,17.99
2022-09-30T09:38:09.205Z,18.18
2022-09-30T09:39:09.207Z,18.04
2022-09-30T09:40:09.189Z,17.91
2022-09-30T09:41:09.186Z,17.84
2022-09-30T09:42:09.272Z,17.94
2022-09-30T09:43:09.154Z,17.73
2022-09-30T09:44:09.148Z,17.78
2022-09-30T09:45:09.149Z,18.06
2022-09-30T09:46:09.145Z,18.17
2022-09-30T09:47:09.120Z,18.18
2022-09-30T09:48:09.099Z,18.29
2022-09-30T09:49:09.134Z,18.42
2022-09-30T09:50:09.082Z,18.59
2022-09-30T09:51:09.139Z,18.73
2022-09-30T09:52:09.063Z,18.73
2022-09-30T09:53:09.078Z,18.21
2022-09-30T09:54:09.109Z,18.28
2022-09-30T09:55:09.121Z,18.39
2022-09-30T09:56:09.043Z,18.36
2022-09-30T09:57:09.014Z,18.64
2022-09-30T09:58:08.995Z,18.79
2022-09-30T09:59:08.989Z,18.86
2022-09-30T10:00:08.976Z,19.01
2022-09-30T10:01:08.958Z,19.08
2022-09-30T10:02:08.955Z,18.92
2022-09-30T10:03:08.941Z,19.2
2022-09-30T10:04:08.941Z,19.31
2022-09-30T10:05:08.928Z,19.28
2022-09-30T10:06:08.917Z,19.18
2022-09-30T10:07:08.896Z,19.21
2022-09-30T10:08:08.889Z,18.97
2022-09-30T10:09:08.881Z,18.68
2022-09-30T10:10:08.865Z,18.73
2022-09-30T10:11:08.851Z,18.13
2022-09-30T10:12:08.842Z,17.81
2022-09-30T10:13:08.835Z,17.67
2022-09-30T10:14:08.831Z,18.04
2022-09-30T10:15:08.819Z,18.13
2022-09-30T10:16:08.800Z,18.1
2022-09-30T10:17:08.797Z,18.15
2022-09-30T10:18:08.834Z,18.43
2022-09-30T10:19:08.778Z,18.67
2022-09-30T10:20:08.766Z,18.68
2022-09-30T10:21:08.747Z,18.61
2022-09-30T10:22:08.738Z,18.61
2022-09-30T10:23:08.732Z,18.54
2022-09-30T10:24:08.741Z,18.74
2022-09-30T10:25:08.705Z,18.99
2022-09-30T10:26:08.697Z,18.95
2022-09-30T10:27:08.688Z,18.92
2022-09-30T10:28:08.681Z,18.97
2022-09-30T10:29:08.667Z,19.11
2022-09-30T10:30:08.660Z,18.82
2022-09-30T10:31:08.657Z,18.86
2022-09-30T10:32:08.633Z,18.94
2022-09-30T10:33:08.623Z,18.87
2022-09-30T10:34:08.615Z,18.86
2022-09-30T10:35:08.615Z,18.84
2022-09-30T10:36:08.603Z,18.84
2022-09-30T10:37:08.593Z,18.8
2022-09-30T10:38:08.637Z,18.94
2022-09-30T10:39:08.559Z,18.8
2022-09-30T10:40:08.553Z,19.01
2022-09-30T10:41:08.532Z,19.28
2022-09-30T10:42:08.535Z,19.75
2022-09-30T10:43:08.511Z,20.13
2022-09-30T10:44:08.502Z,20.31
2022-09-30T10:45:08.487Z,21.51
2022-09-30T10:46:08.485Z,22.82
2022-09-30T10:47:08.515Z,21.74
2022-09-30T10:48:08.458Z,20.09
2022-09-30T10:49:08.482Z,20.08
2022-09-30T10:50:08.435Z,21.06
2022-09-30T10:51:08.433Z,21.67
2022-09-30T10:52:08.415Z,22.64
2022-09-30T10:53:08.611Z,23.42
2022-09-30T10:54:08.391Z,24.5
2022-09-30T10:55:08.386Z,25
2022-09-30T10:56:08.382Z,24.88
2022-09-30T10:57:08.376Z,25.8
2022-09-30T10:58:08.369Z,26.24
2022-09-30T10:59:08.339Z,26.12
2022-09-30T11:00:08.373Z,24.75
2022-09-30T11:01:08.317Z,25.13
2022-09-30T11:02:08.310Z,23.85
2022-09-30T11:03:08.294Z,21.94
2022-09-30T11:04:08.292Z,21.44
2022-09-30T11:05:08.280Z,23.12
2022-09-30T11:06:08.269Z,24.47
2022-09-30T11:07:08.255Z,24.26
2022-09-30T11:08:08.241Z,24.92
2022-09-30T11:09:08.235Z,26.02
2022-09-30T11:10:08.227Z,25.65
2022-09-30T11:11:08.225Z,24.85
2022-09-30T11:12:08.247Z,23.07
2022-09-30T11:13:08.190Z,23.64
2022-09-30T11:14:08.181Z,24.53
2022-09-30T11:15:08.169Z,25.75
2022-09-30T11:16:08.203Z,25.99
2022-09-30T11:17:08.147Z,25.56
2022-09-30T11:18:08.144Z,25.24
2022-09-30T11:19:08.134Z,25.31
2022-09-30T11:20:08.115Z,26.08
2022-09-30T11:21:08.108Z,27.33
2022-09-30T11:22:08.097Z,26.98
2022-09-30T11:23:08.082Z,26.57
2022-09-30T11:24:08.074Z,26.49
2022-09-30T11:25:08.078Z,27.17
2022-09-30T11:26:08.055Z,27.69
2022-09-30T11:27:08.041Z,26.25
2022-09-30T11:28:08.035Z,26.04
2022-09-30T11:29:08.022Z,26.08
2022-09-30T11:30:08.063Z,26.2
2022-09-30T11:31:08.007Z,27.09
2022-09-30T11:32:07.993Z,28.48
2022-09-30T11:33:08.032Z,29.45
2022-09-30T11:34:08.014Z,29.07
2022-09-30T11:35:07.959Z,27.77
2022-09-30T11:36:07.955Z,27.91
2022-09-30T11:37:07.950Z,28.01
2022-09-30T11:38:07.931Z,26.74
2022-09-30T11:39:07.953Z,27.01
2022-09-30T11:40:07.923Z,27.38
2022-09-30T11:41:08.179Z,27.38
2022-09-30T11:42:07.888Z,27.59
2022-09-30T11:43:07.964Z,26.43
2022-09-30T11:44:08.099Z,26.5
2022-09-30T11:45:07.871Z,27.1
2022-09-30T11:46:07.883Z,27.91
2022-09-30T11:47:07.858Z,28.32
2022-09-30T11:48:07.849Z,28.84
2022-09-30T11:49:07.820Z,-40
2022-09-30T11:50:07.821Z,-40
2022-09-30T11:51:07.797Z,-40
2022-09-30T11:52:07.793Z,-40
2022-09-30T11:53:08.010Z,-40
2022-09-30T11:54:07.779Z,-40
2022-09-30T11:55:07.771Z,-40
2022-09-30T11:56:07.785Z,-40
2022-09-30T11:57:07.740Z,-40
2022-09-30T11:58:07.739Z,-40
2022-09-30T11:59:07.724Z,-40
2022-09-30T12:00:07.723Z,-40
2022-09-30T12:01:07.696Z,-40
2022-09-30T12:02:07.694Z,-40
2022-09-30T12:03:07.698Z,-40
2022-09-30T12:04:07.674Z,-40
2022-09-30T12:05:07.663Z,-40
2022-09-30T12:06:07.658Z,-40
2022-09-30T12:07:07.651Z,-40
2022-09-30T12:08:07.631Z,-40
2022-09-30T12:09:07.635Z,-40
2022-09-30T12:10:07.609Z,-40
2022-09-30T12:11:07.603Z,-40
2022-09-30T12:12:07.596Z,-40
2022-09-30T12:13:07.584Z,-40
2022-09-30T12:14:07.567Z,-40
2022-09-30T12:15:07.562Z,-40
2022-09-30T12:16:07.598Z,-40
2022-09-30T12:17:07.606Z,-40
2022-09-30T12:18:07.527Z,-40
2022-09-30T12:19:07.515Z,-40
2022-09-30T12:20:07.519Z,-40
2022-09-30T12:21:07.502Z,-40
2022-09-30T12:22:07.497Z,-40
2022-09-30T12:23:07.554Z,-40
2022-09-30T12:24:07.473Z,-40
2022-09-30T12:25:07.456Z,-40
2022-09-30T12:26:07.445Z,-40
2022-09-30T12:27:07.435Z,-40
2022-09-30T12:28:07.459Z,-40
2022-09-30T12:29:07.462Z,-40
2022-09-30T12:30:07.408Z,-40
2022-09-30T12:31:07.393Z,-40
2022-09-30T12:32:07.386Z,-40
2022-09-30T12:33:07.369Z,-40
2022-09-30T12:34:07.361Z,-40
2022-09-30T12:35:07.370Z,-40
2022-09-30T12:36:07.353Z,-40
2022-09-30T12:37:07.336Z,-40
2022-09-30T12:38:07.330Z,-40
2022-09-30T12:39:07.311Z,-40
2022-09-30T12:40:07.325Z,-40
2022-09-30T12:41:07.367Z,-40
2022-09-30T12:42:07.306Z,-40
2022-09-30T12:43:07.269Z,-40
2022-09-30T12:44:07.260Z,-40
2022-09-30T12:45:07.253Z,-40
2022-09-30T12:46:07.236Z,-40
2022-09-30T12:47:07.295Z,-40
2022-09-30T12:48:07.221Z,-40
2022-09-30T12:49:07.215Z,-40
2022-09-30T12:50:07.208Z,-40
2022-09-30T12:51:07.192Z,-40
2022-09-30T12:52:07.199Z,-40
2022-09-30T12:53:07.186Z,-40
2022-09-30T12:54:07.186Z,-40
2022-09-30T12:55:07.156Z,-40
2022-09-30T12:56:07.134Z,-40
2022-09-30T12:57:07.128Z,-40
2022-09-30T12:58:07.134Z,-40
2022-09-30T12:59:07.116Z,-40
2022-09-30T13:00:07.108Z,-40
2022-09-30T13:01:07.079Z,-40